Portada
METAR-TAF:

METAR-TAF

Aeroports :

Ljungbyhed, Suècia

latitud: 56-04N, longitud: 013-12E, altitud: 43 m

Observació

L'informe es va fer fa 32 minuts, a les 00:50 UTC
Vent 13 kt del Oest
Temperatura 5°C
Humitat 100%
Pressió 1013 hPa
Visibilitat 10 km o més

METAR: ESTL 250050Z AUTO 27013KT 9999 FEW011/// 05/05 Q1013

Hora: 02:22 (01:22 UTC)

Pronòstic

L'informe es va fer fa 17 hores i 8 minuts, a les 08:14 UTC
Pronòstic vàlid del 24 a les 09 UTC al 24 a les 12 UTC
Vent 12 kt del Oest
Visibilitat: 5000 m
Cel ennuvolat a una alçada de 800 ft
Temporalment
l' 24 a les 09 UTC al 24 a les 12 UTC
Visibilitat: 4000 m
Cel ennuvolat a una alçada de 1500 ft
pluja, plugim, boirina

TAF: ESTL 240814Z 2409/2412 27012KT 5000 BKN008 TEMPO 2409/2412 4000 RADZ BR BKN015

Observacions i pronòstics meteorològics de més de 4000 aeroports (METAR i TAF).

Les estacions disponibles són els punts grocs i vermells al mapa.

Posi el ratolí al punt desitjat per veure el nom de l'estació.

Feu clic per veure les observacions i els pronòstics meteorològics.

Per canviar el mapa: feu clic els botons verds amb una creu de color negre per apropar; al botó verd amb un guió per allunyar la imatge; o en les fletxes verdes per a mapes adjacents.


METAR-TAF: